Time;durP1;ratioP1;P1;durP2;ratioP2;P2;SDS_P1;SDS_P2;PMS_P1;PMS_P2;Temp;Humidity;BMP_temperature;BMP_pressure;BME280_temperature;BME280_humidity;BME280_pressure;Samples;Min_cycle;Max_cycle;Signal;HPM_P1;HPM_P2
2022/11/01 00:01:53;;;;;;;31.27;14.40;;;;;;;;;;6219375;23;20113;-85
2022/11/01 00:04:18;;;;;;;34.75;15.23;;;;;;;;;;6218985;23;20004;-85
2022/11/01 00:06:44;;;;;;;48.17;16.00;;;;;;;;;;6193420;23;20015;-87
2022/11/01 00:09:10;;;;;;;32.33;15.38;;;;;;;;;;6218273;23;20343;-86
2022/11/01 00:11:35;;;;;;;40.05;16.35;;;;;;;;;;6218141;23;20004;-86
2022/11/01 00:14:01;;;;;;;34.78;16.67;;;;;;;;;;6218576;23;20296;-86
2022/11/01 00:16:27;;;;;;;37.20;17.67;;;;;;;;;;6263913;23;20031;-85
2022/11/01 00:19:05;;;;;;;34.20;16.25;;;;;;;;;;6222488;23;20000;-86
2022/11/01 00:21:30;;;;;;;33.25;15.93;;;;;;;;;;6220676;23;20008;-88
2022/11/01 00:23:56;;;;;;;37.17;15.75;;;;;;;;;;6219377;23;20390;-86
2022/11/01 00:26:22;;;;;;;34.28;16.33;;;;;;;;;;6244722;23;20004;-85
2022/11/01 00:28:48;;;;;;;33.92;16.35;;;;;;;;;;6245676;23;20004;-86
2022/11/01 00:31:14;;;;;;;45.75;17.00;;;;;;;;;;6193344;23;20009;-87
2022/11/01 00:33:39;;;;;;;35.13;15.82;;;;;;;;;;6221016;23;20015;-86
2022/11/01 00:36:05;;;;;;;38.38;16.45;;;;;;;;;;6252261;23;20431;-87
2022/11/01 00:38:31;;;;;;;41.15;16.27;;;;;;;;;;6256069;23;19996;-86
2022/11/01 00:40:57;;;;;;;36.92;15.70;;;;;;;;;;6219830;23;20031;-87
2022/11/01 00:43:37;;;;;;;36.08;15.48;;;;;;;;;;6219347;23;20519;-87
2022/11/01 00:46:03;;;;;;;34.38;15.50;;;;;;;;;;6193500;23;20087;-86
2022/11/01 00:48:29;;;;;;;39.53;16.55;;;;;;;;;;6218089;23;20054;-86
2022/11/01 00:50:54;;;;;;;35.42;16.77;;;;;;;;;;6218310;23;20000;-87
2022/11/01 00:53:20;;;;;;;33.50;15.63;;;;;;;;;;6224454;23;20008;-85
2022/11/01 00:55:45;;;;;;;39.53;15.70;;;;;;;;;;6249333;23;20007;-86
2022/11/01 00:58:11;;;;;;;35.88;17.27;;;;;;;;;;6229459;23;20008;-86
2022/11/01 01:00:36;;;;;;;34.65;16.60;;;;;;;;;;6222150;23;20415;-86
2022/11/01 01:03:06;;;;;;;34.63;16.65;;;;;;;;;;6219306;23;20024;-86
2022/11/01 01:05:33;;;;;;;41.90;17.48;;;;;;;;;;6219922;23;20004;-86
2022/11/01 01:07:58;;;;;;;34.63;17.17;;;;;;;;;;6219095;23;20011;-86
2022/11/01 01:10:24;;;;;;;37.10;17.25;;;;;;;;;;6168624;23;20373;-86
2022/11/01 01:12:49;;;;;;;36.53;16.50;;;;;;;;;;6218263;23;20004;-87
2022/11/01 01:15:15;;;;;;;29.75;16.45;;;;;;;;;;6169879;23;20004;-86
2022/11/01 01:17:40;;;;;;;31.58;17.63;;;;;;;;;;6219467;23;20475;-86
2022/11/01 01:20:06;;;;;;;35.83;17.42;;;;;;;;;;6257943;23;19996;-86
2022/11/01 01:22:32;;;;;;;32.38;17.13;;;;;;;;;;6221083;23;20054;-86
2022/11/01 01:24:57;;;;;;;45.72;17.65;;;;;;;;;;6220790;23;20012;-86
2022/11/01 01:27:23;;;;;;;34.38;15.07;;;;;;;;;;6245910;23;20478;-86
2022/11/01 01:29:48;;;;;;;37.90;14.35;;;;;;;;;;6218500;23;20011;-87
2022/11/01 01:32:15;;;;;;;34.00;15.85;;;;;;;;;;6229238;22;20015;-84
2022/11/01 01:34:40;;;;;;;34.42;15.25;;;;;;;;;;6172229;23;20004;-85
2022/11/01 01:37:07;;;;;;;28.98;16.45;;;;;;;;;;6194796;23;20459;-87
2022/11/01 01:39:33;;;;;;;45.30;18.75;;;;;;;;;;6202944;23;20038;-87
2022/11/01 01:42:00;;;;;;;45.40;20.88;;;;;;;;;;6254780;23;20004;-87
2022/11/01 01:44:50;;;;;;;45.85;20.58;;;;;;;;;;6172173;23;20032;-86
2022/11/01 01:47:29;;;;;;;44.70;23.23;;;;;;;;;;6245981;23;20008;-86
2022/11/01 01:50:02;;;;;;;49.88;23.92;;;;;;;;;;6195691;23;20000;-86
2022/11/01 01:52:30;;;;;;;59.47;24.90;;;;;;;;;;6203218;23;20051;-86
2022/11/01 01:58:53;;;;;;;46.15;22.10;;;;;;;;;;6234491;22;20054;-81
2022/11/01 02:01:28;;;;;;;42.45;23.02;;;;;;;;;;6193654;23;20071;-81
2022/11/01 02:07:41;;;;;;;54.42;24.77;;;;;;;;;;6165817;22;20069;-80
2022/11/01 02:10:07;;;;;;;50.08;24.90;;;;;;;;;;6217203;22;20008;-82
2022/11/01 02:12:57;;;;;;;47.28;24.15;;;;;;;;;;6190081;23;20009;-81
2022/11/01 02:15:26;;;;;;;51.80;25.42;;;;;;;;;;6212734;23;20416;-81
2022/11/01 02:29:46;;;;;;;53.60;25.50;;;;;;;;;;6211662;22;20019;-78
2022/11/01 02:32:31;;;;;;;47.67;25.88;;;;;;;;;;6197245;23;20075;-77
2022/11/01 02:34:58;;;;;;;53.88;26.80;;;;;;;;;;6244306;23;20007;-77
2022/11/01 02:37:37;;;;;;;55.20;27.48;;;;;;;;;;6192031;23;20035;-77
2022/11/01 02:40:08;;;;;;;61.35;28.10;;;;;;;;;;6243865;23;20020;-76
2022/11/01 02:42:49;;;;;;;59.35;28.70;;;;;;;;;;6217407;23;20004;-78
2022/11/01 02:45:28;;;;;;;;;;;;;;;;;;6195392;23;20000;-77
2022/11/01 02:48:00;;;;;;;56.08;28.55;;;;;;;;;;6246071;23;19914;-77
2022/11/01 02:50:27;;;;;;;63.53;30.33;;;;;;;;;;6245696;23;20062;-77
2022/11/01 02:52:53;;;;;;;64.03;31.15;;;;;;;;;;6194132;23;20000;-76
2022/11/01 02:55:29;;;;;;;57.25;30.45;;;;;;;;;;6220095;23;20007;-78
2022/11/01 02:58:06;;;;;;;61.28;29.75;;;;;;;;;;6219719;23;20004;-76
2022/11/01 03:00:35;;;;;;;63.05;29.48;;;;;;;;;;6194953;23;20408;-76
2022/11/01 03:03:03;;;;;;;53.35;29.02;;;;;;;;;;6218955;23;20415;-76
2022/11/01 03:05:38;;;;;;;59.97;30.13;;;;;;;;;;6244787;23;20000;-77
2022/11/01 03:08:06;;;;;;;56.92;30.00;;;;;;;;;;6220144;23;20008;-76
2022/11/01 03:10:51;;;;;;;57.95;30.08;;;;;;;;;;6219863;23;20007;-76
2022/11/01 03:13:31;;;;;;;55.30;29.27;;;;;;;;;;6245918;23;20001;-76
2022/11/01 03:16:04;;;;;;;56.13;29.95;;;;;;;;;;6218882;23;20031;-76
2022/11/01 03:18:34;;;;;;;60.45;30.77;;;;;;;;;;6245924;23;20328;-76
2022/11/01 03:21:14;;;;;;;55.63;30.30;;;;;;;;;;6193736;23;20004;-76
2022/11/01 03:24:14;;;;;;;61.53;31.13;;;;;;;;;;6245572;23;20008;-78
2022/11/01 03:26:40;;;;;;;;;;;;;;;;;;6194718;23;20491;-79
2022/11/01 03:29:06;;;;;;;58.30;29.15;;;;;;;;;;6218600;23;19911;-76
2022/11/01 03:31:32;;;;;;;60.00;30.73;;;;;;;;;;6219223;23;20000;-78
2022/11/01 03:34:05;;;;;;;57.20;30.73;;;;;;;;;;6193364;23;20027;-77
2022/11/01 03:36:37;;;;;;;56.42;30.25;;;;;;;;;;6219749;23;20002;-76
2022/11/01 03:39:07;;;;;;;58.58;30.20;;;;;;;;;;6194869;23;20011;-77
2022/11/01 03:41:35;;;;;;;59.83;28.33;;;;;;;;;;6194636;23;20000;-77
2022/11/01 03:44:00;;;;;;;52.70;29.10;;;;;;;;;;6218494;23;20075;-77
2022/11/01 03:46:26;;;;;;;58.45;28.40;;;;;;;;;;6245911;23;20004;-78
2022/11/01 03:48:51;;;;;;;61.75;32.08;;;;;;;;;;6218498;23;20102;-77
2022/11/01 03:51:17;;;;;;;55.67;29.63;;;;;;;;;;6245401;23;20436;-77
2022/11/01 03:53:42;;;;;;;61.80;30.73;;;;;;;;;;6218338;23;20011;-79
2022/11/01 03:56:08;;;;;;;68.18;33.00;;;;;;;;;;6219014;23;20400;-74
2022/11/01 03:58:49;;;;;;;66.20;33.03;;;;;;;;;;6219200;23;20000;-76
2022/11/01 04:01:15;;;;;;;66.40;32.67;;;;;;;;;;6221833;23;20004;-75
2022/11/01 04:03:41;;;;;;;68.65;34.22;;;;;;;;;;6244869;23;20003;-76
2022/11/01 04:06:07;;;;;;;60.15;33.22;;;;;;;;;;6244682;23;20058;-77
2022/11/01 04:08:32;;;;;;;65.35;31.85;;;;;;;;;;6245233;23;20054;-77
2022/11/01 04:10:58;;;;;;;61.00;32.20;;;;;;;;;;6219090;23;20004;-79
2022/11/01 04:13:23;;;;;;;62.17;31.15;;;;;;;;;;6218759;23;20109;-77
2022/11/01 04:21:23;;;;;;;67.18;32.67;;;;;;;;;;6245213;23;20015;-76
2022/11/01 04:23:49;;;;;;;61.83;31.15;;;;;;;;;;6218641;23;20360;-77
2022/11/01 04:26:16;;;;;;;69.78;30.85;;;;;;;;;;6218454;23;20004;-77
2022/11/01 04:28:43;;;;;;;57.70;31.15;;;;;;;;;;6245094;23;20000;-77
2022/11/01 04:31:09;;;;;;;65.57;31.42;;;;;;;;;;6244969;23;20000;-76
2022/11/01 04:33:35;;;;;;;63.72;31.63;;;;;;;;;;6193224;23;20457;-78
2022/11/01 04:36:06;;;;;;;63.72;30.95;;;;;;;;;;6217984;23;20050;-77
2022/11/01 04:38:32;;;;;;;61.05;31.10;;;;;;;;;;6245076;23;20695;-76
2022/11/01 04:40:57;;;;;;;59.40;30.65;;;;;;;;;;6243857;23;20086;-78
2022/11/01 04:43:23;;;;;;;62.42;31.90;;;;;;;;;;6247768;23;20427;-78
2022/11/01 04:45:55;;;;;;;59.58;31.48;;;;;;;;;;6220151;23;20382;-76
2022/11/01 04:48:21;;;;;;;52.60;29.67;;;;;;;;;;6245006;23;20370;-78
2022/11/01 04:50:46;;;;;;;58.55;30.58;;;;;;;;;;6245183;23;20007;-76
2022/11/01 04:53:12;;;;;;;65.55;31.05;;;;;;;;;;6244634;23;20405;-76
2022/11/01 04:55:37;;;;;;;61.35;31.58;;;;;;;;;;6217707;23;20008;-78
2022/11/01 04:58:03;;;;;;;61.03;30.83;;;;;;;;;;6244780;23;19996;-76
2022/11/01 05:00:30;;;;;;;66.53;31.65;;;;;;;;;;6245261;23;20015;-78
2022/11/01 05:03:03;;;;;;;62.40;32.55;;;;;;;;;;6244651;23;20006;-77
2022/11/01 05:05:28;;;;;;;69.00;33.72;;;;;;;;;;6244356;23;20011;-76
2022/11/01 05:08:03;;;;;;;58.67;31.58;;;;;;;;;;6244812;23;20000;-77
2022/11/01 05:10:29;;;;;;;65.93;33.45;;;;;;;;;;6218355;23;20022;-78
2022/11/01 05:12:55;;;;;;;74.82;34.28;;;;;;;;;;6218361;23;20039;-75
2022/11/01 05:15:20;;;;;;;76.53;34.50;;;;;;;;;;6244165;23;20004;-76
2022/11/01 05:17:46;;;;;;;66.85;33.55;;;;;;;;;;6218032;23;20347;-77
2022/11/01 05:20:11;;;;;;;73.25;35.92;;;;;;;;;;6218412;23;20000;-77
2022/11/01 05:22:46;;;;;;;70.47;35.70;;;;;;;;;;6218417;23;20008;-77
2022/11/01 05:25:11;;;;;;;60.03;34.10;;;;;;;;;;6217783;23;20004;-77
2022/11/01 05:27:37;;;;;;;59.65;34.35;;;;;;;;;;6244588;23;20031;-79
2022/11/01 05:30:03;;;;;;;63.42;35.60;;;;;;;;;;6243951;23;20040;-78
2022/11/01 05:32:28;;;;;;;70.82;36.58;;;;;;;;;;6244529;23;20130;-76
2022/11/01 05:34:54;;;;;;;72.00;35.78;;;;;;;;;;6217414;23;20372;-77
2022/11/01 05:37:19;;;;;;;75.18;37.15;;;;;;;;;;6244079;23;20003;-77
2022/11/01 05:39:45;;;;;;;63.58;36.28;;;;;;;;;;6217904;23;20092;-77
2022/11/01 05:42:10;;;;;;;66.03;36.22;;;;;;;;;;6218106;23;20008;-77
2022/11/01 05:44:35;;;;;;;76.13;36.85;;;;;;;;;;6244209;23;20004;-76
2022/11/01 05:47:03;;;;;;;74.20;36.95;;;;;;;;;;6243925;23;20000;-76
2022/11/01 05:49:28;;;;;;;68.80;36.83;;;;;;;;;;6244878;23;20134;-76
2022/11/01 05:51:54;;;;;;;71.43;36.45;;;;;;;;;;6244480;23;20443;-76
2022/11/01 05:54:19;;;;;;;72.97;36.00;;;;;;;;;;6244195;23;20079;-76
2022/11/01 05:56:45;;;;;;;86.75;38.10;;;;;;;;;;6217101;23;20439;-76
2022/11/01 05:59:10;;;;;;;78.60;37.70;;;;;;;;;;6244768;23;20370;-76
2022/11/01 06:01:36;;;;;;;73.10;36.83;;;;;;;;;;6244728;23;20004;-77
2022/11/01 06:04:13;;;;;;;70.78;34.55;;;;;;;;;;6244464;23;20000;-77
2022/11/01 06:06:39;;;;;;;67.97;33.83;;;;;;;;;;6244168;23;20438;-76
2022/11/01 06:09:04;;;;;;;68.38;33.33;;;;;;;;;;6217582;23;20000;-76
2022/11/01 06:11:30;;;;;;;72.05;33.50;;;;;;;;;;6243515;23;20010;-75
2022/11/01 06:13:56;;;;;;;68.47;32.50;;;;;;;;;;6217340;23;20086;-76
2022/11/01 06:16:21;;;;;;;63.20;32.42;;;;;;;;;;6243668;23;20004;-77
2022/11/01 06:18:47;;;;;;;63.85;32.40;;;;;;;;;;6217600;23;20332;-75
2022/11/01 06:21:13;;;;;;;68.63;32.47;;;;;;;;;;6244279;23;20011;-76
2022/11/01 06:23:38;;;;;;;75.15;34.53;;;;;;;;;;6243959;23;20427;-75
2022/11/01 06:26:04;;;;;;;68.95;31.92;;;;;;;;;;6243936;23;20015;-76
2022/11/01 06:28:30;;;;;;;68.38;33.47;;;;;;;;;;6243674;23;20004;-76
2022/11/01 06:30:59;;;;;;;67.13;33.50;;;;;;;;;;6244268;23;20012;-76
2022/11/01 06:33:24;;;;;;;71.22;33.05;;;;;;;;;;6217504;23;20008;-77
2022/11/01 06:35:50;;;;;;;65.50;32.47;;;;;;;;;;6243876;23;20312;-75
2022/11/01 06:38:15;;;;;;;69.63;31.42;;;;;;;;;;6243903;23;20000;-77
2022/11/01 06:40:41;;;;;;;68.45;32.05;;;;;;;;;;6243973;23;20004;-77
2022/11/01 06:43:06;;;;;;;73.50;31.60;;;;;;;;;;6242505;23;20378;-77
2022/11/01 06:45:32;;;;;;;60.00;31.13;;;;;;;;;;6243874;23;20000;-76
2022/11/01 06:47:57;;;;;;;58.28;28.08;;;;;;;;;;6243698;23;20004;-76
2022/11/01 06:50:23;;;;;;;55.40;27.52;;;;;;;;;;6217120;23;20436;-75
2022/11/01 06:52:48;;;;;;;57.30;27.98;;;;;;;;;;6244666;23;20004;-77
2022/11/01 06:55:14;;;;;;;57.33;27.98;;;;;;;;;;6217140;23;20390;-78
2022/11/01 06:57:39;;;;;;;54.55;27.75;;;;;;;;;;6243364;23;20038;-78
2022/11/01 07:00:05;;;;;;;55.67;27.88;;;;;;;;;;6244172;23;20007;-77
2022/11/01 07:02:31;;;;;;;51.92;27.92;;;;;;;;;;6243768;23;20369;-75
2022/11/01 07:04:56;;;;;;;60.00;28.13;;;;;;;;;;6243750;23;20062;-76
2022/11/01 07:07:22;;;;;;;63.20;27.98;;;;;;;;;;6243439;23;20031;-75
2022/11/01 07:09:47;;;;;;;55.38;27.27;;;;;;;;;;6243952;23;20028;-77
2022/11/01 07:12:13;;;;;;;52.70;27.80;;;;;;;;;;6217134;23;20095;-77
2022/11/01 07:14:38;;;;;;;60.72;27.80;;;;;;;;;;6216401;23;20527;-77
2022/11/01 07:17:04;;;;;;;53.53;28.23;;;;;;;;;;6244134;23;20000;-78
2022/11/01 07:19:29;;;;;;;57.10;27.92;;;;;;;;;;6244031;23;20011;-77
2022/11/01 07:21:55;;;;;;;54.58;27.70;;;;;;;;;;6243741;23;20015;-77
2022/11/01 07:24:20;;;;;;;51.97;27.20;;;;;;;;;;6243785;23;20004;-78
2022/11/01 07:26:46;;;;;;;60.80;28.05;;;;;;;;;;6243081;23;20001;-79
2022/11/01 07:29:11;;;;;;;55.38;29.00;;;;;;;;;;6242884;23;20016;-76
2022/11/01 07:31:37;;;;;;;51.33;26.88;;;;;;;;;;6245577;23;20046;-77
2022/11/01 07:34:04;;;;;;;52.33;26.75;;;;;;;;;;6246375;23;20015;-78
2022/11/01 07:36:29;;;;;;;58.08;27.08;;;;;;;;;;6245385;23;20004;-76
2022/11/01 07:38:55;;;;;;;49.92;26.17;;;;;;;;;;6193842;23;20087;-78
2022/11/01 07:41:20;;;;;;;53.33;27.35;;;;;;;;;;6245083;23;20046;-77
2022/11/01 07:43:45;;;;;;;55.67;27.67;;;;;;;;;;6219446;23;20066;-78
2022/11/01 07:46:11;;;;;;;50.70;26.35;;;;;;;;;;6245452;23;20019;-77
2022/11/01 07:48:36;;;;;;;58.67;26.50;;;;;;;;;;6245277;23;20031;-78
2022/11/01 07:51:04;;;;;;;53.42;26.63;;;;;;;;;;6218690;23;20010;-78
2022/11/01 07:53:30;;;;;;;52.20;25.98;;;;;;;;;;6245939;23;20042;-77
2022/11/01 07:55:55;;;;;;;49.10;25.88;;;;;;;;;;6245101;23;20004;-77
2022/11/01 07:58:20;;;;;;;58.00;27.17;;;;;;;;;;6245171;23;20000;-76
2022/11/01 08:00:46;;;;;;;58.90;26.55;;;;;;;;;;6245393;23;20005;-77
2022/11/01 08:03:16;;;;;;;53.53;26.27;;;;;;;;;;6193763;23;20001;-77
2022/11/01 08:05:42;;;;;;;57.63;27.42;;;;;;;;;;6245404;23;20004;-79
2022/11/01 08:08:08;;;;;;;57.60;27.63;;;;;;;;;;6245312;23;20038;-79
2022/11/01 08:10:33;;;;;;;51.65;27.65;;;;;;;;;;6245223;23;20004;-76
2022/11/01 08:13:21;;;;;;;55.80;26.75;;;;;;;;;;6218712;23;20008;-77
2022/11/01 08:15:47;;;;;;;51.17;27.30;;;;;;;;;;6217487;23;20093;-78
2022/11/01 08:18:13;;;;;;;55.70;27.25;;;;;;;;;;6244978;23;20007;-76
2022/11/01 08:20:40;;;;;;;57.97;27.85;;;;;;;;;;6245082;23;20379;-77
2022/11/01 08:23:05;;;;;;;55.10;27.02;;;;;;;;;;6218760;23;20483;-78
2022/11/01 08:25:31;;;;;;;62.00;29.08;;;;;;;;;;6245096;23;20011;-76
2022/11/01 08:28:01;;;;;;;52.92;27.83;;;;;;;;;;6217895;23;20430;-80
2022/11/01 08:30:26;;;;;;;61.25;29.27;;;;;;;;;;6244784;23;20008;-76
2022/11/01 08:32:59;;;;;;;56.08;28.08;;;;;;;;;;6245400;23;20096;-77
2022/11/01 08:35:25;;;;;;;56.13;26.50;;;;;;;;;;6244756;23;20030;-78
2022/11/01 08:37:50;;;;;;;53.05;27.10;;;;;;;;;;6244908;23;20004;-76
2022/11/01 08:40:16;;;;;;;52.97;26.63;;;;;;;;;;6217734;23;20023;-78
2022/11/01 08:42:42;;;;;;;51.53;26.90;;;;;;;;;;6245223;23;20443;-77
2022/11/01 08:45:07;;;;;;;52.53;27.40;;;;;;;;;;6244722;23;20024;-78
2022/11/01 08:47:36;;;;;;;58.83;28.00;;;;;;;;;;6218167;23;20509;-77
2022/11/01 08:50:01;;;;;;;54.95;28.10;;;;;;;;;;6245799;23;19996;-79
2022/11/01 08:52:26;;;;;;;55.13;27.15;;;;;;;;;;6218262;23;20000;-77
2022/11/01 08:54:52;;;;;;;56.65;27.27;;;;;;;;;;6245266;23;20027;-78
2022/11/01 08:57:18;;;;;;;59.15;27.17;;;;;;;;;;6244523;23;20093;-79
2022/11/01 08:59:43;;;;;;;54.17;28.35;;;;;;;;;;6217956;23;20003;-77
2022/11/01 09:02:10;;;;;;;65.80;27.90;;;;;;;;;;6218176;23;20011;-78
2022/11/01 09:04:35;;;;;;;56.30;27.90;;;;;;;;;;6218286;23;20000;-78
2022/11/01 09:07:01;;;;;;;55.17;26.90;;;;;;;;;;6244950;23;20369;-77
2022/11/01 09:09:26;;;;;;;47.63;25.77;;;;;;;;;;6217436;23;20075;-76
2022/11/01 09:11:52;;;;;;;54.55;27.92;;;;;;;;;;6244580;23;20101;-78
2022/11/01 09:14:22;;;;;;;48.70;26.40;;;;;;;;;;6244784;23;20046;-76
2022/11/01 09:16:48;;;;;;;49.80;24.75;;;;;;;;;;6243034;23;20008;-76
2022/11/01 09:19:13;;;;;;;51.10;25.58;;;;;;;;;;6244833;23;20006;-78
2022/11/01 09:21:39;;;;;;;49.40;26.15;;;;;;;;;;6244487;23;20011;-74
2022/11/01 09:24:04;;;;;;;57.50;27.20;;;;;;;;;;6244133;23;20446;-77
2022/11/01 09:26:30;;;;;;;56.75;26.05;;;;;;;;;;6244134;23;20378;-78
2022/11/01 09:28:57;;;;;;;49.58;27.67;;;;;;;;;;6244400;23;20008;-76
2022/11/01 09:31:22;;;;;;;56.40;27.25;;;;;;;;;;6244345;23;20004;-78
2022/11/01 09:33:48;;;;;;;48.70;25.02;;;;;;;;;;6244015;23;20040;-78
2022/11/01 09:36:13;;;;;;;54.85;25.92;;;;;;;;;;6243610;23;20007;-78
2022/11/01 09:38:39;;;;;;;50.10;26.65;;;;;;;;;;6244333;23;19992;-77
2022/11/01 09:41:22;;;;;;;49.92;27.23;;;;;;;;;;6243898;23;20038;-77
2022/11/01 09:43:48;;;;;;;53.78;25.83;;;;;;;;;;6219622;23;20000;-77
2022/11/01 09:46:15;;;;;;;54.88;27.48;;;;;;;;;;6192342;23;19996;-77
2022/11/01 09:48:40;;;;;;;50.25;26.75;;;;;;;;;;6217500;23;20004;-77
2022/11/01 09:51:12;;;;;;;53.03;27.67;;;;;;;;;;6244325;23;20000;-77
2022/11/01 09:53:38;;;;;;;57.60;26.73;;;;;;;;;;6195525;23;20003;-76
2022/11/01 09:56:11;;;;;;;54.92;26.55;;;;;;;;;;6244258;23;20372;-77
2022/11/01 09:58:40;;;;;;;53.47;25.38;;;;;;;;;;6217681;23;20000;-78
2022/11/01 10:01:37;;;;;;;59.10;25.83;;;;;;;;;;6244102;23;20011;-77
2022/11/01 10:04:19;;;;;;;55.55;25.67;;;;;;;;;;6213123;23;20011;-77
2022/11/01 10:07:05;;;;;;;63.22;26.33;;;;;;;;;;6247236;23;20032;-78
2022/11/01 10:09:51;;;;;;;54.50;25.75;;;;;;;;;;6251668;23;20407;-78
2022/11/01 10:12:19;;;;;;;52.13;24.95;;;;;;;;;;6230639;23;20071;-77
2022/11/01 10:15:17;;;;;;;44.65;24.23;;;;;;;;;;6247760;23;20000;-78
2022/11/01 10:17:53;;;;;;;52.47;24.90;;;;;;;;;;6269489;23;20012;-77
2022/11/01 10:20:29;;;;;;;45.10;25.58;;;;;;;;;;6270175;23;19988;-77
2022/11/01 10:22:54;;;;;;;44.90;23.83;;;;;;;;;;6226304;23;20489;-77
2022/11/01 10:25:31;;;;;;;43.85;24.60;;;;;;;;;;6192923;23;20004;-78
2022/11/01 10:28:20;;;;;;;45.50;24.13;;;;;;;;;;6168854;23;20034;-77
2022/11/01 10:30:47;;;;;;;56.20;25.65;;;;;;;;;;6220088;23;20028;-78
2022/11/01 10:33:26;;;;;;;50.78;24.45;;;;;;;;;;6167678;23;20001;-77
2022/11/01 10:36:01;;;;;;;42.35;24.52;;;;;;;;;;6216835;23;20008;-77
2022/11/01 10:38:36;;;;;;;48.60;24.40;;;;;;;;;;6168620;23;20004;-77
2022/11/01 10:41:08;;;;;;;60.25;24.75;;;;;;;;;;6243959;23;20007;-76
2022/11/01 10:43:36;;;;;;;44.17;24.23;;;;;;;;;;6244294;23;20004;-76
2022/11/01 10:46:01;;;;;;;45.72;23.50;;;;;;;;;;6192458;23;19996;-77
2022/11/01 10:48:38;;;;;;;50.85;23.65;;;;;;;;;;6192866;23;20419;-77
2022/11/01 10:51:05;;;;;;;46.95;24.42;;;;;;;;;;6192027;23;20015;-77
2022/11/01 10:53:32;;;;;;;46.83;24.63;;;;;;;;;;6244003;23;20004;-77
2022/11/01 10:56:00;;;;;;;59.47;25.02;;;;;;;;;;6192605;23;19996;-78
2022/11/01 10:58:37;;;;;;;48.25;23.60;;;;;;;;;;6217022;23;20007;-78
2022/11/01 11:01:04;;;;;;;45.65;22.10;;;;;;;;;;6193111;23;20035;-77
2022/11/01 11:03:32;;;;;;;49.83;22.95;;;;;;;;;;6192040;23;20011;-77
2022/11/01 11:06:00;;;;;;;45.53;21.75;;;;;;;;;;6219554;23;20434;-77
2022/11/01 11:08:25;;;;;;;44.95;23.00;;;;;;;;;;6246052;23;20092;-77
2022/11/01 11:10:51;;;;;;;52.05;21.90;;;;;;;;;;6245437;23;20428;-77
2022/11/01 11:13:19;;;;;;;37.45;21.88;;;;;;;;;;6219052;23;20082;-77
2022/11/01 11:15:48;;;;;;;52.38;22.05;;;;;;;;;;6245248;23;20069;-77
2022/11/01 11:18:26;;;;;;;49.90;23.80;;;;;;;;;;6218658;23;20011;-77
2022/11/01 11:20:58;;;;;;;40.03;22.00;;;;;;;;;;6244700;23;20004;-78
2022/11/01 11:23:28;;;;;;;42.63;21.85;;;;;;;;;;6245739;23;20502;-76
2022/11/01 11:26:00;;;;;;;48.95;23.27;;;;;;;;;;6245241;23;20083;-77
2022/11/01 11:28:29;;;;;;;48.72;23.33;;;;;;;;;;6194052;23;20016;-77
2022/11/01 11:30:54;;;;;;;48.47;22.95;;;;;;;;;;6245266;23;20350;-77
2022/11/01 11:33:20;;;;;;;39.20;22.45;;;;;;;;;;6193246;23;19996;-77
2022/11/01 11:35:55;;;;;;;41.88;23.33;;;;;;;;;;6193600;23;20000;-78
2022/11/01 11:38:42;;;;;;;56.22;23.75;;;;;;;;;;6218727;23;19996;-78
2022/11/01 11:41:09;;;;;;;53.00;23.25;;;;;;;;;;6245407;23;20321;-77
2022/11/01 11:43:36;;;;;;;42.05;23.42;;;;;;;;;;6245837;23;20008;-76
2022/11/01 11:46:08;;;;;;;47.72;23.33;;;;;;;;;;6245509;23;20340;-79
2022/11/01 11:48:45;;;;;;;49.30;22.63;;;;;;;;;;6245047;23;20075;-76
2022/11/01 11:51:10;;;;;;;48.45;22.80;;;;;;;;;;6245321;23;20036;-77
2022/11/01 11:53:36;;;;;;;57.08;23.40;;;;;;;;;;6219023;23;20005;-78
2022/11/01 11:56:02;;;;;;;52.75;23.58;;;;;;;;;;6218628;23;20070;-77
2022/11/01 11:58:50;;;;;;;46.30;22.88;;;;;;;;;;6219236;23;20066;-76
2022/11/01 12:01:21;;;;;;;54.38;22.65;;;;;;;;;;6217761;23;20087;-75
2022/11/01 12:03:54;;;;;;;47.25;22.48;;;;;;;;;;6193574;23;20016;-75
2022/11/01 12:06:21;;;;;;;46.70;22.00;;;;;;;;;;6193509;23;20419;-77
2022/11/01 12:08:51;;;;;;;46.33;22.13;;;;;;;;;;6218701;23;20000;-76
2022/11/01 12:11:16;;;;;;;47.05;22.58;;;;;;;;;;6218726;23;20035;-77
2022/11/01 12:14:02;;;;;;;53.95;22.27;;;;;;;;;;6217996;23;20355;-77
2022/11/01 12:16:28;;;;;;;43.03;22.63;;;;;;;;;;6221257;23;20000;-78
2022/11/01 12:18:58;;;;;;;43.75;23.60;;;;;;;;;;6218177;23;20348;-77
2022/11/01 12:21:43;;;;;;;47.97;23.38;;;;;;;;;;6245302;23;20367;-78
2022/11/01 12:24:20;;;;;;;46.13;22.23;;;;;;;;;;6243679;23;20011;-79
2022/11/01 12:26:46;;;;;;;44.30;22.88;;;;;;;;;;6193468;23;20458;-77
2022/11/01 12:30:01;;;;;;;43.03;22.60;;;;;;;;;;6192924;23;20004;-77
2022/11/01 12:32:37;;;;;;;44.42;22.67;;;;;;;;;;6228873;23;20027;-78
2022/11/01 12:35:05;;;;;;;52.08;22.27;;;;;;;;;;6194299;23;20014;-77
2022/11/01 12:37:52;;;;;;;45.58;21.13;;;;;;;;;;6218942;23;20016;-76
2022/11/01 12:40:20;;;;;;;45.13;21.40;;;;;;;;;;6245024;23;20439;-77
2022/11/01 12:42:55;;;;;;;41.72;21.20;;;;;;;;;;6217723;23;20007;-77
2022/11/01 12:45:20;;;;;;;45.15;21.67;;;;;;;;;;6244671;23;20015;-76
2022/11/01 12:47:47;;;;;;;44.97;20.77;;;;;;;;;;6244751;23;20393;-77
2022/11/01 12:50:18;;;;;;;42.75;21.55;;;;;;;;;;6218000;23;20344;-77
2022/11/01 12:52:46;;;;;;;47.25;20.27;;;;;;;;;;6192769;23;20450;-77
2022/11/01 12:55:11;;;;;;;54.25;21.42;;;;;;;;;;6217969;23;20008;-77
2022/11/01 12:57:36;;;;;;;40.83;20.60;;;;;;;;;;6244409;23;20004;-77
2022/11/01 13:00:04;;;;;;;43.67;19.83;;;;;;;;;;6192760;23;20000;-76
2022/11/01 13:02:52;;;;;;;48.72;20.70;;;;;;;;;;6244486;23;20004;-76
2022/11/01 13:05:24;;;;;;;43.08;20.45;;;;;;;;;;6218646;23;20062;-78
2022/11/01 13:08:01;;;;;;;44.70;21.17;;;;;;;;;;6218163;23;20059;-78
2022/11/01 13:10:38;;;;;;;43.47;20.38;;;;;;;;;;6218109;23;20054;-77
2022/11/01 13:13:10;;;;;;;44.10;20.10;;;;;;;;;;6193476;23;20004;-77
2022/11/01 13:15:57;;;;;;;51.15;21.80;;;;;;;;;;6244394;23;20008;-77
2022/11/01 13:18:54;;;;;;;44.70;19.85;;;;;;;;;;6219543;23;20082;-77
2022/11/01 13:21:37;;;;;;;50.22;22.27;;;;;;;;;;6240119;23;20012;-78
2022/11/01 13:24:14;;;;;;;65.90;30.38;;;;;;;;;;6217965;23;20435;-77
2022/11/01 13:27:29;;;;;;;44.00;21.58;;;;;;;;;;6217546;23;20007;-77
2022/11/01 13:30:08;;;;;;;51.10;21.20;;;;;;;;;;6220047;23;20077;-78
2022/11/01 13:32:58;;;;;;;50.15;20.08;;;;;;;;;;6169191;23;20004;-78
2022/11/01 13:35:38;;;;;;;50.17;20.40;;;;;;;;;;6243934;23;20004;-78
2022/11/01 13:38:19;;;;;;;42.33;20.63;;;;;;;;;;6244452;23;20004;-78
2022/11/01 13:40:49;;;;;;;43.35;20.70;;;;;;;;;;6244686;23;20007;-78
2022/11/01 13:43:27;;;;;;;45.13;20.92;;;;;;;;;;6243634;23;20093;-77
2022/11/01 13:46:11;;;;;;;42.05;20.73;;;;;;;;;;6217739;23;20000;-78
2022/11/01 13:48:52;;;;;;;45.30;20.65;;;;;;;;;;6244141;23;20042;-77
2022/11/01 13:51:24;;;;;;;52.67;20.63;;;;;;;;;;6244362;23;20007;-77
2022/11/01 13:54:02;;;;;;;46.95;20.70;;;;;;;;;;6244115;23;20424;-77
2022/11/01 13:56:36;;;;;;;44.92;21.48;;;;;;;;;;6192711;23;20022;-77
2022/11/01 13:59:11;;;;;;;39.30;20.33;;;;;;;;;;6192693;23;20103;-77
2022/11/01 14:01:37;;;;;;;43.05;20.60;;;;;;;;;;6194324;23;20000;-77
2022/11/01 14:04:15;;;;;;;47.60;21.42;;;;;;;;;;6217639;23;20004;-78
2022/11/01 14:06:41;;;;;;;52.88;21.50;;;;;;;;;;6244196;23;20004;-77
2022/11/01 14:09:22;;;;;;;48.90;20.15;;;;;;;;;;6244042;23;20004;-78
2022/11/01 14:11:48;;;;;;;45.92;21.13;;;;;;;;;;6244044;23;20004;-77
2022/11/01 14:14:43;;;;;;;46.00;21.42;;;;;;;;;;6243744;23;20004;-77
2022/11/01 14:17:18;;;;;;;42.72;21.73;;;;;;;;;;6202085;23;20060;-77
2022/11/01 14:19:47;;;;;;;51.28;21.42;;;;;;;;;;6244231;23;19996;-77
2022/11/01 14:22:23;;;;;;;42.15;20.52;;;;;;;;;;6217269;23;20011;-78
2022/11/01 14:24:53;;;;;;;47.28;21.63;;;;;;;;;;6243310;23;19996;-78
2022/11/01 14:27:41;;;;;;;46.88;21.80;;;;;;;;;;6242640;23;20004;-77
2022/11/01 14:30:14;;;;;;;44.17;20.83;;;;;;;;;;6244008;23;20011;-77
2022/11/01 14:32:41;;;;;;;42.03;20.20;;;;;;;;;;6244262;23;20071;-77
2022/11/01 14:35:10;;;;;;;47.10;20.67;;;;;;;;;;6216896;23;20031;-77
2022/11/01 14:37:43;;;;;;;42.80;19.65;;;;;;;;;;6243903;23;20015;-78
2022/11/01 14:40:53;;;;;;;42.65;20.20;;;;;;;;;;6220369;23;20000;-77
2022/11/01 14:43:32;;;;;;;47.63;20.83;;;;;;;;;;6191625;23;20004;-78
2022/11/01 14:46:15;;;;;;;45.17;20.08;;;;;;;;;;6221268;23;20007;-77
2022/11/01 14:48:59;;;;;;;49.00;20.50;;;;;;;;;;6219274;23;19996;-77
2022/11/01 14:51:30;;;;;;;45.80;20.17;;;;;;;;;;6218997;23;19996;-77
2022/11/01 14:54:14;;;;;;;46.22;21.25;;;;;;;;;;6194750;23;20102;-77
2022/11/01 14:56:41;;;;;;;43.13;20.80;;;;;;;;;;6245638;23;20004;-77
2022/11/01 14:59:13;;;;;;;50.42;20.63;;;;;;;;;;6245674;23;20083;-77
2022/11/01 15:01:43;;;;;;;42.42;20.42;;;;;;;;;;6246218;23;20008;-77